createdAt,value
2019-04-04T17:13:46.445Z,91924.63
2019-04-04T17:16:14.840Z,91935.02
2019-04-04T17:18:43.164Z,91930.66
2019-04-04T17:21:11.429Z,91925.97
2019-04-04T17:23:39.714Z,91917.20
2019-04-04T17:26:07.992Z,91912.81
2019-04-04T17:28:36.422Z,91919.53
2019-04-04T17:31:07.112Z,91913.87
2019-04-04T17:33:34.777Z,91911.03
2019-04-04T17:36:03.022Z,91917.75
2019-04-04T17:38:31.761Z,91912.58
2019-04-04T17:41:00.006Z,91921.63
2019-04-04T17:43:28.751Z,91927.56
2019-04-04T17:45:57.577Z,91941.53
2019-04-04T17:48:25.863Z,91959.37
2019-04-04T17:50:54.095Z,91955.25
2019-04-04T17:53:22.514Z,91953.42
2019-04-04T17:55:50.858Z,91960.42
2019-04-04T17:58:19.538Z,91966.64
2019-04-04T18:00:47.938Z,91966.63
2019-04-04T18:03:16.208Z,91964.83
2019-04-04T18:05:44.535Z,91965.84
2019-04-04T18:08:15.910Z,91975.68
2019-04-04T18:10:44.169Z,91984.47
2019-04-04T18:13:12.439Z,91978.77
2019-04-04T18:15:40.680Z,91970.77
2019-04-04T18:18:09.923Z,91983.95
2019-04-04T18:20:38.185Z,91997.13
2019-04-04T18:23:06.471Z,92005.41
2019-04-04T18:25:34.816Z,92016.52
2019-04-04T18:28:03.048Z,92032.80
2019-04-04T18:30:31.291Z,92040.55
2019-04-04T18:32:59.574Z,92043.94
2019-04-04T18:35:27.888Z,92043.92
2019-04-04T18:37:56.356Z,92036.95
2019-04-04T18:40:24.598Z,92037.72
2019-04-04T18:42:53.939Z,92041.61
2019-04-04T18:45:22.308Z,92037.98
2019-04-04T18:47:50.551Z,92037.47
2019-04-04T18:50:18.829Z,92042.64
2019-04-04T18:52:47.073Z,92044.21
2019-04-04T18:55:20.049Z,92048.88
2019-04-04T18:57:45.307Z,92040.36
2019-04-04T19:00:14.488Z,92044.75
2019-04-04T19:02:42.052Z,92055.35
2019-04-04T19:05:10.338Z,92060.30
2019-04-04T19:07:39.857Z,92058.48
2019-04-04T19:10:09.882Z,92061.33
2019-04-04T19:12:37.526Z,92064.17
2019-04-04T19:15:07.789Z,92059.52
2019-04-04T19:17:36.296Z,92061.05
2019-04-04T19:20:10.189Z,92063.09
2019-04-04T19:22:38.729Z,92067.25
2019-04-04T19:25:07.066Z,92071.88
2019-04-04T19:27:35.324Z,92075.45
2019-04-04T19:30:09.921Z,92081.64
2019-04-04T19:32:38.181Z,92077.50
2019-04-04T19:35:07.093Z,92073.58
2019-04-04T19:37:35.543Z,92075.62
2019-04-04T19:40:04.972Z,92088.61
2019-04-04T19:42:40.266Z,92093.27
2019-04-04T19:45:08.544Z,92090.66
2019-04-04T19:47:36.798Z,92096.89
2019-04-04T19:50:08.337Z,92099.22
2019-04-04T19:52:36.675Z,92097.64
2019-04-04T19:55:05.329Z,92103.08
2019-04-04T19:57:33.568Z,92108.77
2019-04-04T20:00:01.853Z,92104.67
2019-04-04T20:02:30.095Z,92114.47
2019-04-04T20:04:58.366Z,92111.38
2019-04-04T20:07:26.643Z,92106.23
2019-04-04T20:09:54.920Z,92104.91
2019-04-04T20:12:23.169Z,92104.42
2019-04-04T20:14:51.514Z,92108.80
2019-04-04T20:17:19.771Z,92102.61
2019-04-04T20:19:48.087Z,92107.80
2019-04-04T20:22:16.315Z,92110.13
2019-04-04T20:24:44.952Z,92117.86
2019-04-04T20:27:13.215Z,92116.31
2019-04-04T20:29:41.462Z,92112.17
2019-04-04T20:32:09.742Z,92118.36
2019-04-04T20:34:38.946Z,92124.05
2019-04-04T20:37:07.225Z,92126.14
2019-04-04T20:39:35.463Z,92124.09
2019-04-04T20:42:03.801Z,92127.70
2019-04-04T20:44:32.050Z,92125.91
2019-04-04T20:47:00.418Z,92127.45
2019-04-04T20:49:29.196Z,92124.62
2019-04-04T20:51:57.547Z,92125.68
2019-04-04T20:54:25.882Z,92133.16
2019-04-04T20:56:54.276Z,92138.08
2019-04-04T20:59:22.802Z,92138.85
2019-04-04T21:01:51.340Z,92138.85
2019-04-04T21:04:19.863Z,92140.44
2019-04-04T21:06:48.270Z,92138.62
2019-04-04T21:09:16.641Z,92139.40
2019-04-04T21:11:44.913Z,92144.05
2019-04-04T21:14:13.557Z,92137.33
2019-04-04T21:16:41.881Z,92133.42
2019-04-04T21:19:11.087Z,92138.61
2019-04-04T21:21:39.513Z,92138.62
2019-04-04T21:24:07.906Z,92143.77
2019-04-04T21:26:36.183Z,92154.11
2019-04-04T21:29:04.432Z,92152.83
2019-04-04T21:31:32.726Z,92153.34
2019-04-04T21:34:00.979Z,92159.30
2019-04-04T21:36:29.256Z,92155.67
2019-04-04T21:38:57.516Z,92156.97
2019-04-04T21:41:25.799Z,92166.25
2019-04-04T21:43:54.046Z,92161.88
2019-04-04T21:46:22.412Z,92162.64
2019-04-04T21:48:50.679Z,92161.06
2019-04-04T21:51:18.918Z,92166.00
2019-04-04T21:53:47.181Z,92161.33
2019-04-04T21:56:15.466Z,92158.72
2019-04-04T21:58:43.747Z,92160.38
2019-04-04T22:01:12.167Z,92163.30
2019-04-04T22:03:40.446Z,92162.09
2019-04-04T22:06:08.702Z,92155.66
2019-04-04T22:08:36.979Z,92154.62
2019-04-04T22:11:05.267Z,92149.71
2019-04-04T22:13:33.578Z,92153.33
2019-04-04T22:16:01.827Z,92159.28
2019-04-04T22:18:30.103Z,92157.98
2019-04-04T22:20:58.355Z,92157.70
2019-04-04T22:23:26.635Z,92152.03
2019-04-04T22:25:54.890Z,92157.70
2019-04-04T22:28:23.166Z,92153.83
2019-04-04T22:30:51.406Z,92156.94
2019-04-04T22:33:19.683Z,92152.27
2019-04-04T22:35:47.949Z,92155.63
2019-04-04T22:38:16.237Z,92154.08
2019-04-04T22:40:44.510Z,92153.58
2019-04-04T22:43:12.775Z,92152.29
2019-04-04T22:45:41.024Z,92137.81
2019-04-04T22:48:09.450Z,92153.84
2019-04-04T22:50:37.695Z,92145.59
2019-04-04T22:53:05.957Z,92146.61
2019-04-04T22:55:34.273Z,92151.78
2019-04-04T22:58:02.548Z,92149.47
2019-04-04T23:00:30.796Z,92151.28
2019-04-04T23:03:00.645Z,92151.00
2019-04-04T23:05:28.273Z,92145.31
2019-04-04T23:07:56.532Z,92145.84
2019-04-04T23:10:24.777Z,92148.93
2019-04-04T23:12:53.059Z,92147.12
2019-04-04T23:15:21.313Z,92143.26
2019-04-04T23:17:49.688Z,92139.86
2019-04-04T23:20:17.961Z,92139.61
2019-04-04T23:22:52.694Z,92138.31
2019-04-04T23:25:16.205Z,92137.30
2019-04-04T23:27:44.487Z,92130.31
2019-04-04T23:30:12.919Z,92125.66
2019-04-04T23:32:41.174Z,92134.20
2019-04-04T23:35:09.457Z,92125.64
2019-04-04T23:37:37.701Z,92120.77
2019-04-04T23:40:05.969Z,92122.55
2019-04-04T23:42:34.287Z,92119.45
2019-04-04T23:45:02.561Z,92122.02
2019-04-04T23:47:42.172Z,92131.85
2019-04-04T23:50:00.792Z,92132.33
2019-04-04T23:52:29.110Z,92133.37
2019-04-04T23:54:57.385Z,92132.81
2019-04-04T23:57:25.645Z,92129.41
2019-04-04T23:59:53.999Z,92120.85
